sensor_id;sensor_type;location;lat;lon;timestamp;pressure;altitude;pressure_sealevel;temperature;humidity
44825;BME280;30542;47.928;2.138;2022-11-20T00:04:04;100355.53;;;19.14;54.01
44825;BME280;30542;47.928;2.138;2022-11-20T00:09:04;100351.00;;;19.15;53.74
44825;BME280;30542;47.928;2.138;2022-11-20T00:14:05;100347.69;;;19.02;53.82
44825;BME280;30542;47.928;2.138;2022-11-20T00:19:05;100351.22;;;19.08;53.96
44825;BME280;30542;47.928;2.138;2022-11-20T00:24:08;100347.47;;;19.04;53.85
44825;BME280;30542;47.928;2.138;2022-11-20T00:29:09;100348.78;;;19.01;53.73
44825;BME280;30542;47.928;2.138;2022-11-20T00:34:10;100339.66;;;18.97;53.80
44825;BME280;30542;47.928;2.138;2022-11-20T00:39:11;100343.91;;;18.93;53.97
44825;BME280;30542;47.928;2.138;2022-11-20T00:44:11;100336.44;;;18.95;53.53
44825;BME280;30542;47.928;2.138;2022-11-20T00:49:11;100336.16;;;18.92;53.79
44825;BME280;30542;47.928;2.138;2022-11-20T00:54:12;100348.66;;;18.86;53.77
44825;BME280;30542;47.928;2.138;2022-11-20T00:59:12;100346.25;;;18.84;53.66
44825;BME280;30542;47.928;2.138;2022-11-20T01:04:12;100337.94;;;18.81;53.75
44825;BME280;30542;47.928;2.138;2022-11-20T01:09:14;100335.53;;;18.79;53.83
44825;BME280;30542;47.928;2.138;2022-11-20T01:14:18;100341.09;;;18.78;53.90
44825;BME280;30542;47.928;2.138;2022-11-20T01:19:23;100345.34;;;18.74;53.83
44825;BME280;30542;47.928;2.138;2022-11-20T01:24:24;100343.22;;;18.71;53.79
44825;BME280;30542;47.928;2.138;2022-11-20T01:29:24;100339.72;;;18.70;54.05
44825;BME280;30542;47.928;2.138;2022-11-20T01:34:25;100343.22;;;18.71;53.65
44825;BME280;30542;47.928;2.138;2022-11-20T01:39:26;100347.94;;;18.69;53.73
44825;BME280;30542;47.928;2.138;2022-11-20T01:49:46;100342.63;;;18.69;53.95
44825;BME280;30542;47.928;2.138;2022-11-20T01:54:53;100338.00;;;18.59;54.25
44825;BME280;30542;47.928;2.138;2022-11-20T02:00:05;100327.84;;;18.56;54.05
44825;BME280;30542;47.928;2.138;2022-11-20T02:05:19;100335.56;;;18.57;53.88
44825;BME280;30542;47.928;2.138;2022-11-20T02:10:22;100325.44;;;18.54;54.14
44825;BME280;30542;47.928;2.138;2022-11-20T02:15:23;100334.78;;;18.57;53.77
44825;BME280;30542;47.928;2.138;2022-11-20T02:20:24;100325.44;;;18.54;53.72
44825;BME280;30542;47.928;2.138;2022-11-20T02:25:26;100327.22;;;18.49;54.07
44825;BME280;30542;47.928;2.138;2022-11-20T02:30:27;100329.66;;;18.50;53.58
44825;BME280;30542;47.928;2.138;2022-11-20T02:40:28;100319.50;;;18.47;53.46
44825;BME280;30542;47.928;2.138;2022-11-20T02:45:29;100321.59;;;18.45;53.62
44825;BME280;30542;47.928;2.138;2022-11-20T02:50:29;100308.78;;;18.42;53.34
44825;BME280;30542;47.928;2.138;2022-11-20T02:55:30;100306.13;;;18.42;53.40
44825;BME280;30542;47.928;2.138;2022-11-20T03:00:30;100310.88;;;18.40;53.45
44825;BME280;30542;47.928;2.138;2022-11-20T03:05:32;100303.66;;;18.35;53.25
44825;BME280;30542;47.928;2.138;2022-11-20T03:10:32;100300.69;;;18.32;53.35
44825;BME280;30542;47.928;2.138;2022-11-20T03:15:32;100287.59;;;18.30;53.14
44825;BME280;30542;47.928;2.138;2022-11-20T03:20:33;100281.22;;;18.31;53.43
44825;BME280;30542;47.928;2.138;2022-11-20T03:25:34;100277.22;;;18.29;53.26
44825;BME280;30542;47.928;2.138;2022-11-20T03:30:38;100263.28;;;18.22;53.14
44825;BME280;30542;47.928;2.138;2022-11-20T03:35:38;100261.22;;;18.29;53.26
44825;BME280;30542;47.928;2.138;2022-11-20T03:40:39;100262.47;;;18.21;53.09
44825;BME280;30542;47.928;2.138;2022-11-20T03:45:39;100259.28;;;18.24;52.96
44825;BME280;30542;47.928;2.138;2022-11-20T03:50:39;100257.38;;;18.20;53.01
44825;BME280;30542;47.928;2.138;2022-11-20T03:55:41;100254.41;;;18.16;53.31
44825;BME280;30542;47.928;2.138;2022-11-20T04:00:42;100257.16;;;18.21;52.84
44825;BME280;30542;47.928;2.138;2022-11-20T04:05:42;100242.41;;;18.13;52.79
44825;BME280;30542;47.928;2.138;2022-11-20T04:10:42;100257.63;;;18.18;52.63
44825;BME280;30542;47.928;2.138;2022-11-20T04:15:43;100251.75;;;18.16;52.75
44825;BME280;30542;47.928;2.138;2022-11-20T04:20:43;100246.19;;;18.18;52.51
44825;BME280;30542;47.928;2.138;2022-11-20T04:25:43;100256.38;;;18.26;52.53
44825;BME280;30542;47.928;2.138;2022-11-20T04:30:44;100245.81;;;18.41;52.28
44825;BME280;30542;47.928;2.138;2022-11-20T04:35:47;100235.03;;;18.58;51.82
44825;BME280;30542;47.928;2.138;2022-11-20T04:40:48;100244.69;;;18.69;51.82
44825;BME280;30542;47.928;2.138;2022-11-20T04:45:53;100253.13;;;18.83;51.24
44825;BME280;30542;47.928;2.138;2022-11-20T04:50:53;100251.03;;;18.95;51.32
44825;BME280;30542;47.928;2.138;2022-11-20T04:56:02;100234.50;;;18.98;51.03
44825;BME280;30542;47.928;2.138;2022-11-20T05:01:09;100216.88;;;18.97;51.06
44825;BME280;30542;47.928;2.138;2022-11-20T05:06:12;100229.22;;;19.08;51.09
44825;BME280;30542;47.928;2.138;2022-11-20T05:11:18;100214.03;;;19.14;51.00
44825;BME280;30542;47.928;2.138;2022-11-20T05:16:21;100210.59;;;19.24;50.67
44825;BME280;30542;47.928;2.138;2022-11-20T05:21:22;100182.81;;;19.20;50.94
44825;BME280;30542;47.928;2.138;2022-11-20T05:26:23;100201.56;;;19.35;50.34
44825;BME280;30542;47.928;2.138;2022-11-20T05:31:24;100202.34;;;19.35;50.70
44825;BME280;30542;47.928;2.138;2022-11-20T05:36:25;100199.97;;;19.39;50.23
44825;BME280;30542;47.928;2.138;2022-11-20T05:41:25;100204.00;;;19.47;50.46
44825;BME280;30542;47.928;2.138;2022-11-20T05:46:26;100197.88;;;19.46;50.33
44825;BME280;30542;47.928;2.138;2022-11-20T05:51:27;100208.28;;;19.53;50.05
44825;BME280;30542;47.928;2.138;2022-11-20T05:56:28;100215.78;;;19.56;50.37
44825;BME280;30542;47.928;2.138;2022-11-20T06:01:28;100214.97;;;19.60;50.08
44825;BME280;30542;47.928;2.138;2022-11-20T06:06:28;100215.56;;;19.63;49.85
44825;BME280;30542;47.928;2.138;2022-11-20T06:11:29;100207.56;;;19.63;49.99
44825;BME280;30542;47.928;2.138;2022-11-20T06:16:29;100198.19;;;19.65;50.11
44825;BME280;30542;47.928;2.138;2022-11-20T06:21:29;100195.56;;;19.70;49.71
44825;BME280;30542;47.928;2.138;2022-11-20T06:26:30;100187.25;;;19.72;49.73
44825;BME280;30542;47.928;2.138;2022-11-20T06:31:31;100187.25;;;19.72;49.70
44825;BME280;30542;47.928;2.138;2022-11-20T06:36:34;100187.78;;;19.74;49.94
44825;BME280;30542;47.928;2.138;2022-11-20T06:41:35;100183.50;;;19.78;49.80
44825;BME280;30542;47.928;2.138;2022-11-20T06:46:35;100172.81;;;19.78;49.72
44825;BME280;30542;47.928;2.138;2022-11-20T06:51:36;100176.84;;;19.75;49.76
44825;BME280;30542;47.928;2.138;2022-11-20T06:56:36;100180.59;;;19.79;49.60
44825;BME280;30542;47.928;2.138;2022-11-20T07:01:36;100185.94;;;19.84;49.36
44825;BME280;30542;47.928;2.138;2022-11-20T07:06:37;100181.91;;;19.82;49.26
44825;BME280;30542;47.928;2.138;2022-11-20T07:11:37;100187.25;;;19.82;49.65
44825;BME280;30542;47.928;2.138;2022-11-20T07:16:37;100195.56;;;19.85;49.28
44825;BME280;30542;47.928;2.138;2022-11-20T07:21:38;100202.78;;;19.90;49.37
44825;BME280;30542;47.928;2.138;2022-11-20T07:26:38;100204.91;;;19.83;49.11
44825;BME280;30542;47.928;2.138;2022-11-20T07:31:38;100194.75;;;19.85;48.15
44825;BME280;30542;47.928;2.138;2022-11-20T07:36:39;100195.31;;;19.92;48.78
44825;BME280;30542;47.928;2.138;2022-11-20T07:41:39;100196.91;;;19.93;48.83
44825;BME280;30542;47.928;2.138;2022-11-20T07:46:42;100207.06;;;19.91;49.18
44825;BME280;30542;47.928;2.138;2022-11-20T07:51:43;100215.09;;;19.91;49.41
44825;BME280;30542;47.928;2.138;2022-11-20T07:56:43;100214.28;;;19.91;49.49
44825;BME280;30542;47.928;2.138;2022-11-20T08:01:44;100208.94;;;19.91;49.64
44825;BME280;30542;47.928;2.138;2022-11-20T08:06:44;100207.31;;;19.90;49.93
44825;BME280;30542;47.928;2.138;2022-11-20T08:11:44;100212.66;;;19.90;50.08
44825;BME280;30542;47.928;2.138;2022-11-20T08:17:03;100215.34;;;19.90;50.04
44825;BME280;30542;47.928;2.138;2022-11-20T08:22:03;100209.75;;;19.96;49.88
44825;BME280;30542;47.928;2.138;2022-11-20T08:27:04;100211.63;;;19.91;49.76
44825;BME280;30542;47.928;2.138;2022-11-20T08:32:04;100203.84;;;19.89;50.01
44825;BME280;30542;47.928;2.138;2022-11-20T08:37:04;100202.78;;;19.90;49.72
44825;BME280;30542;47.928;2.138;2022-11-20T08:42:08;100206.78;;;19.93;49.48
44825;BME280;30542;47.928;2.138;2022-11-20T08:47:08;100199.06;;;20.01;48.94
44825;BME280;30542;47.928;2.138;2022-11-20T08:52:08;100186.22;;;19.98;50.10
44825;BME280;30542;47.928;2.138;2022-11-20T08:57:09;100185.16;;;19.99;50.75
44825;BME280;30542;47.928;2.138;2022-11-20T09:02:09;100159.19;;;19.95;51.31
44825;BME280;30542;47.928;2.138;2022-11-20T09:07:09;100150.94;;;19.91;51.76
44825;BME280;30542;47.928;2.138;2022-11-20T09:12:10;100156.28;;;19.91;51.59
44825;BME280;30542;47.928;2.138;2022-11-20T09:17:10;100145.03;;;19.89;51.76
44825;BME280;30542;47.928;2.138;2022-11-20T09:22:13;100145.03;;;19.89;51.89
44825;BME280;30542;47.928;2.138;2022-11-20T09:27:14;100128.47;;;19.92;52.60
44825;BME280;30542;47.928;2.138;2022-11-20T09:32:14;100124.75;;;19.88;53.08
44825;BME280;30542;47.928;2.138;2022-11-20T09:37:14;100122.59;;;19.90;53.53
44825;BME280;30542;47.928;2.138;2022-11-20T09:48:06;100118.59;;;19.88;53.38
44825;BME280;30542;47.928;2.138;2022-11-20T09:53:13;100103.34;;;19.88;53.68
44825;BME280;30542;47.928;2.138;2022-11-20T09:58:28;100090.50;;;19.90;53.65
44825;BME280;30542;47.928;2.138;2022-11-20T10:03:39;100081.44;;;19.91;53.85
44825;BME280;30542;47.928;2.138;2022-11-20T10:08:47;100093.72;;;19.92;53.57
44825;BME280;30542;47.928;2.138;2022-11-20T10:14:12;100086.00;;;19.91;53.77
44825;BME280;30542;47.928;2.138;2022-11-20T10:30:08;100076.06;;;20.11;53.23
44825;BME280;30542;47.928;2.138;2022-11-20T10:35:18;100061.63;;;20.07;54.22
44825;BME280;30542;47.928;2.138;2022-11-20T10:45:32;100075.81;;;20.08;54.06
44825;BME280;30542;47.928;2.138;2022-11-20T10:50:39;100063.78;;;20.05;53.79
44825;BME280;30542;47.928;2.138;2022-11-20T11:00:41;100049.06;;;19.98;55.24
44825;BME280;30542;47.928;2.138;2022-11-20T11:05:50;100048.56;;;19.91;55.56
44825;BME280;30542;47.928;2.138;2022-11-20T11:10:59;100022.63;;;19.81;55.34
44825;BME280;30542;47.928;2.138;2022-11-20T11:16:02;100013.81;;;19.80;54.83
44825;BME280;30542;47.928;2.138;2022-11-20T11:21:04;100023.69;;;20.00;56.02
44825;BME280;30542;47.928;2.138;2022-11-20T11:26:18;99998.78;;;20.10;55.22
44825;BME280;30542;47.928;2.138;2022-11-20T11:31:35;99992.09;;;20.18;55.62
44825;BME280;30542;47.928;2.138;2022-11-20T11:36:35;99998.47;;;20.27;54.13
44825;BME280;30542;47.928;2.138;2022-11-20T11:41:36;100005.41;;;20.33;53.33
44825;BME280;30542;47.928;2.138;2022-11-20T11:46:37;100015.63;;;20.21;54.26
44825;BME280;30542;47.928;2.138;2022-11-20T11:52:09;100008.66;;;20.15;54.50
44825;BME280;30542;47.928;2.138;2022-11-20T12:07:46;100010.47;;;20.34;53.91
44825;BME280;30542;47.928;2.138;2022-11-20T12:12:52;99991.81;;;20.14;53.74
44825;BME280;30542;47.928;2.138;2022-11-20T12:17:54;99991.59;;;20.05;53.96
44825;BME280;30542;47.928;2.138;2022-11-20T12:23:42;99986.28;;;19.95;54.35
44825;BME280;30542;47.928;2.138;2022-11-20T12:28:56;99977.97;;;19.97;54.21
44825;BME280;30542;47.928;2.138;2022-11-20T12:39:57;99974.53;;;19.91;54.07
44825;BME280;30542;47.928;2.138;2022-11-20T12:45:05;99965.97;;;19.89;53.78
44825;BME280;30542;47.928;2.138;2022-11-20T12:55:49;99960.09;;;19.87;54.03
44825;BME280;30542;47.928;2.138;2022-11-20T13:01:00;99954.75;;;19.82;53.74
44825;BME280;30542;47.928;2.138;2022-11-20T13:06:18;99945.66;;;19.88;53.83
44825;BME280;30542;47.928;2.138;2022-11-20T13:11:27;99948.06;;;19.84;53.38
44825;BME280;30542;47.928;2.138;2022-11-20T13:16:36;99951.81;;;19.83;53.61
44825;BME280;30542;47.928;2.138;2022-11-20T13:21:46;99961.72;;;19.83;53.56
44825;BME280;30542;47.928;2.138;2022-11-20T13:26:47;99970.53;;;19.83;53.33
44825;BME280;30542;47.928;2.138;2022-11-20T13:31:47;99960.09;;;19.82;53.31
44825;BME280;30542;47.928;2.138;2022-11-20T13:36:50;99962.78;;;19.77;53.50
44825;BME280;30542;47.928;2.138;2022-11-20T13:47:26;99973.50;;;19.67;53.54
44825;BME280;30542;47.928;2.138;2022-11-20T13:52:42;99971.34;;;19.69;53.46
44825;BME280;30542;47.928;2.138;2022-11-20T14:08:03;99989.28;;;19.63;52.86
44825;BME280;30542;47.928;2.138;2022-11-20T14:13:19;99974.03;;;19.58;53.15
44825;BME280;30542;47.928;2.138;2022-11-20T14:18:20;99981.75;;;19.60;52.67
44825;BME280;30542;47.928;2.138;2022-11-20T14:23:26;99991.94;;;19.63;52.80
44825;BME280;30542;47.928;2.138;2022-11-20T14:28:29;99982.56;;;19.60;52.53
44825;BME280;30542;47.928;2.138;2022-11-20T14:33:32;99979.88;;;19.60;52.78
44825;BME280;30542;47.928;2.138;2022-11-20T14:38:33;99970.03;;;19.61;52.38
44825;BME280;30542;47.928;2.138;2022-11-20T14:43:33;99976.41;;;19.60;52.70
44825;BME280;30542;47.928;2.138;2022-11-20T14:48:45;99971.06;;;19.60;52.24
44825;BME280;30542;47.928;2.138;2022-11-20T14:53:46;99966.00;;;19.58;52.19
44825;BME280;30542;47.928;2.138;2022-11-20T14:58:55;99968.13;;;19.51;52.32
44825;BME280;30542;47.928;2.138;2022-11-20T15:04:14;99988.19;;;19.59;51.91
44825;BME280;30542;47.928;2.138;2022-11-20T15:09:14;100001.25;;;19.60;51.92
44825;BME280;30542;47.928;2.138;2022-11-20T15:14:15;100009.53;;;19.59;52.11
44825;BME280;30542;47.928;2.138;2022-11-20T15:19:19;100012.75;;;19.56;51.71
44825;BME280;30542;47.928;2.138;2022-11-20T15:24:20;100014.63;;;19.55;50.48
44825;BME280;30542;47.928;2.138;2022-11-20T15:29:22;100032.25;;;19.56;51.03
44825;BME280;30542;47.928;2.138;2022-11-20T15:34:26;100030.63;;;19.60;51.10
44825;BME280;30542;47.928;2.138;2022-11-20T15:39:27;100045.63;;;19.61;51.20
44825;BME280;30542;47.928;2.138;2022-11-20T15:44:27;100045.09;;;19.65;51.15
44825;BME280;30542;47.928;2.138;2022-11-20T15:49:28;100039.75;;;19.65;51.55
44825;BME280;30542;47.928;2.138;2022-11-20T15:54:28;100039.75;;;19.65;51.26
44825;BME280;30542;47.928;2.138;2022-11-20T15:59:28;100040.28;;;19.61;51.52
44825;BME280;30542;47.928;2.138;2022-11-20T16:04:29;100048.84;;;19.64;51.48
44825;BME280;30542;47.928;2.138;2022-11-20T16:09:30;100040.28;;;19.61;51.53
44825;BME280;30542;47.928;2.138;2022-11-20T16:14:30;100050.97;;;19.61;51.04
44825;BME280;30542;47.928;2.138;2022-11-20T16:19:49;100067.53;;;19.64;51.43
44825;BME280;30542;47.928;2.138;2022-11-20T16:24:51;100073.69;;;19.64;51.04
44825;BME280;30542;47.928;2.138;2022-11-20T16:29:51;100073.97;;;19.63;51.09
44825;BME280;30542;47.928;2.138;2022-11-20T16:34:51;100077.69;;;19.61;51.25
44825;BME280;30542;47.928;2.138;2022-11-20T16:39:52;100070.72;;;19.60;50.99
44825;BME280;30542;47.928;2.138;2022-11-20T16:44:52;100080.34;;;19.61;50.87
44825;BME280;30542;47.928;2.138;2022-11-20T16:49:52;100077.66;;;19.56;50.78
44825;BME280;30542;47.928;2.138;2022-11-20T16:54:53;100083.00;;;19.56;50.71
44825;BME280;30542;47.928;2.138;2022-11-20T16:59:54;100088.88;;;19.48;50.59
44825;BME280;30542;47.928;2.138;2022-11-20T17:04:54;100091.00;;;19.56;50.50
44825;BME280;30542;47.928;2.138;2022-11-20T17:09:54;100097.75;;;19.64;50.39
44825;BME280;30542;47.928;2.138;2022-11-20T17:14:55;100104.16;;;19.63;50.40
44825;BME280;30542;47.928;2.138;2022-11-20T17:19:55;100092.66;;;19.63;50.16
44825;BME280;30542;47.928;2.138;2022-11-20T17:24:56;100091.88;;;19.67;50.13
44825;BME280;30542;47.928;2.138;2022-11-20T17:29:56;100099.09;;;19.67;49.95
44825;BME280;30542;47.928;2.138;2022-11-20T17:34:58;100096.94;;;19.69;50.00
44825;BME280;30542;47.928;2.138;2022-11-20T17:39:58;100106.28;;;19.71;50.34
44825;BME280;30542;47.928;2.138;2022-11-20T17:44:59;100109.22;;;19.65;50.29
44825;BME280;30542;47.928;2.138;2022-11-20T17:49:59;100119.63;;;19.61;50.32
44825;BME280;30542;47.928;2.138;2022-11-20T17:54:59;100122.06;;;19.63;50.22
44825;BME280;30542;47.928;2.138;2022-11-20T18:00:00;100124.16;;;19.60;50.22
44825;BME280;30542;47.928;2.138;2022-11-20T18:05:00;100129.00;;;19.64;49.75
44825;BME280;30542;47.928;2.138;2022-11-20T18:10:00;100132.75;;;19.63;49.88
44825;BME280;30542;47.928;2.138;2022-11-20T18:15:01;100143.94;;;19.59;49.95
44825;BME280;30542;47.928;2.138;2022-11-20T18:20:02;100149.28;;;19.59;49.57
44825;BME280;30542;47.928;2.138;2022-11-20T18:25:03;100157.31;;;19.65;49.72
44825;BME280;30542;47.928;2.138;2022-11-20T18:30:04;100164.22;;;19.60;49.37
44825;BME280;30542;47.928;2.138;2022-11-20T18:35:05;100172.03;;;19.62;49.60
44825;BME280;30542;47.928;2.138;2022-11-20T18:40:06;100170.16;;;19.63;49.21
44825;BME280;30542;47.928;2.138;2022-11-20T18:45:07;100169.06;;;19.64;49.14
44825;BME280;30542;47.928;2.138;2022-11-20T18:50:08;100173.63;;;19.63;48.97
44825;BME280;30542;47.928;2.138;2022-11-20T18:55:09;100168.00;;;19.65;48.78
44825;BME280;30542;47.928;2.138;2022-11-20T19:00:10;100169.06;;;19.64;49.38
44825;BME280;30542;47.928;2.138;2022-11-20T19:05:12;100187.22;;;19.61;49.49
44825;BME280;30542;47.928;2.138;2022-11-20T19:10:17;100176.81;;;19.65;48.84
44825;BME280;30542;47.928;2.138;2022-11-20T19:15:18;100181.88;;;19.61;48.63
44825;BME280;30542;47.928;2.138;2022-11-20T19:20:18;100166.69;;;19.62;49.04
44825;BME280;30542;47.928;2.138;2022-11-20T19:25:19;100179.72;;;19.58;49.32
44825;BME280;30542;47.928;2.138;2022-11-20T19:30:20;100173.31;;;19.54;48.98
44825;BME280;30542;47.928;2.138;2022-11-20T19:35:20;100170.63;;;19.59;48.94
44825;BME280;30542;47.928;2.138;2022-11-20T19:40:20;100180.81;;;19.57;48.30
44825;BME280;30542;47.928;2.138;2022-11-20T19:45:21;100175.19;;;19.59;48.82
44825;BME280;30542;47.928;2.138;2022-11-20T19:50:21;100170.13;;;19.57;48.60
44825;BME280;30542;47.928;2.138;2022-11-20T19:55:21;100164.22;;;19.55;48.51
44825;BME280;30542;47.928;2.138;2022-11-20T20:00:22;100161.53;;;19.55;48.33
44825;BME280;30542;47.928;2.138;2022-11-20T20:05:22;100171.97;;;19.57;48.61
44825;BME280;30542;47.928;2.138;2022-11-20T20:10:22;100166.38;;;19.53;48.42
44825;BME280;30542;47.928;2.138;2022-11-20T20:15:23;100170.09;;;19.52;48.63
44825;BME280;30542;47.928;2.138;2022-11-20T20:20:23;100165.53;;;19.48;48.38
44825;BME280;30542;47.928;2.138;2022-11-20T20:25:24;100176.50;;;19.51;48.52
44825;BME280;30542;47.928;2.138;2022-11-20T20:30:24;100161.53;;;19.55;48.45
44825;BME280;30542;47.928;2.138;2022-11-20T20:35:25;100163.69;;;19.58;48.46
44825;BME280;30542;47.928;2.138;2022-11-20T20:40:25;100173.31;;;19.54;48.77
44825;BME280;30542;47.928;2.138;2022-11-20T20:45:26;100174.38;;;19.58;48.52
44825;BME280;30542;47.928;2.138;2022-11-20T20:50:26;100173.31;;;19.54;48.76
44825;BME280;30542;47.928;2.138;2022-11-20T20:55:26;100187.75;;;19.53;48.48
44825;BME280;30542;47.928;2.138;2022-11-20T21:00:27;100196.28;;;19.55;48.73
44825;BME280;30542;47.928;2.138;2022-11-20T21:05:27;100204.28;;;19.50;48.61
44825;BME280;30542;47.928;2.138;2022-11-20T21:10:28;100202.19;;;19.57;48.51
44825;BME280;30542;47.928;2.138;2022-11-20T21:15:29;100201.63;;;19.55;48.19
44825;BME280;30542;47.928;2.138;2022-11-20T21:20:29;100194.97;;;19.58;48.16
44825;BME280;30542;47.928;2.138;2022-11-20T21:25:48;100203.72;;;19.43;48.67
44825;BME280;30542;47.928;2.138;2022-11-20T21:30:49;100200.53;;;19.41;49.04
44825;BME280;30542;47.928;2.138;2022-11-20T21:35:49;100212.78;;;19.37;48.90
44825;BME280;30542;47.928;2.138;2022-11-20T21:40:50;100206.88;;;19.30;48.92
44825;BME280;30542;47.928;2.138;2022-11-20T21:45:50;100215.41;;;19.27;48.82
44825;BME280;30542;47.928;2.138;2022-11-20T21:50:51;100221.03;;;19.25;48.88
44825;BME280;30542;47.928;2.138;2022-11-20T21:55:55;100223.94;;;19.19;49.67
44825;BME280;30542;47.928;2.138;2022-11-20T22:00:56;100235.66;;;19.12;49.69
44825;BME280;30542;47.928;2.138;2022-11-20T22:05:57;100220.41;;;19.08;49.60
44825;BME280;30542;47.928;2.138;2022-11-20T22:11:00;100220.66;;;19.06;49.54
44825;BME280;30542;47.928;2.138;2022-11-20T22:16:01;100220.91;;;19.00;49.77
44825;BME280;30542;47.928;2.138;2022-11-20T22:21:05;100206.69;;;18.89;49.57
44825;BME280;30542;47.928;2.138;2022-11-20T22:26:13;100204.84;;;18.90;49.51
44825;BME280;30542;47.928;2.138;2022-11-20T22:31:14;100199.75;;;18.83;49.70
44825;BME280;30542;47.928;2.138;2022-11-20T22:36:17;100190.09;;;18.82;49.86
44825;BME280;30542;47.928;2.138;2022-11-20T22:41:25;100201.84;;;18.76;49.66
44825;BME280;30542;47.928;2.138;2022-11-20T22:46:28;100189.00;;;18.73;49.67
44825;BME280;30542;47.928;2.138;2022-11-20T22:51:31;100193.22;;;18.69;49.69
44825;BME280;30542;47.928;2.138;2022-11-20T22:56:32;100181.72;;;18.63;49.69
44825;BME280;30542;47.928;2.138;2022-11-20T23:01:34;100187.59;;;18.65;49.86
44825;BME280;30542;47.928;2.138;2022-11-20T23:06:36;100178.25;;;18.62;49.97
44825;BME280;30542;47.928;2.138;2022-11-20T23:11:36;100167.00;;;18.55;50.13
44825;BME280;30542;47.928;2.138;2022-11-20T23:16:37;100164.84;;;18.52;49.74
44825;BME280;30542;47.928;2.138;2022-11-20T23:21:39;100174.50;;;18.58;50.08
44825;BME280;30542;47.928;2.138;2022-11-20T23:26:40;100171.53;;;18.55;49.67
44825;BME280;30542;47.928;2.138;2022-11-20T23:31:40;100156.03;;;18.52;50.26
44825;BME280;30542;47.928;2.138;2022-11-20T23:36:41;100145.38;;;18.52;49.79
44825;BME280;30542;47.928;2.138;2022-11-20T23:41:41;100149.09;;;18.51;50.40
44825;BME280;30542;47.928;2.138;2022-11-20T23:46:42;100151.97;;;18.44;50.19
44825;BME280;30542;47.928;2.138;2022-11-20T23:51:42;100148.78;;;18.42;50.47
44825;BME280;30542;47.928;2.138;2022-11-20T23:56:42;100140.22;;;18.40;50.34
